Time;durP1;ratioP1;P1;durP2;ratioP2;P2;SDS_P1;SDS_P2;PMS_P1;PMS_P2;Temp;Humidity;BMP_temperature;BMP_pressure;BME280_temperature;BME280_humidity;BME280_pressure;Samples;Min_cycle;Max_cycle;Signal;HPM_P1;HPM_P2
2021/05/14 05:02:36;;;;;;;2.42;1.00;;;;;;;22.70;41.32;94210.31;5097228;23;20052;-71
2021/05/14 05:05:01;;;;;;;2.63;1.20;;;;;;;23.35;40.91;94210.25;4874528;29;20044;-71
2021/05/14 05:07:27;;;;;;;2.40;1.20;;;;;;;23.84;40.92;94209.59;4892417;29;20047;-71
2021/05/14 05:09:52;;;;;;;2.70;1.10;;;;;;;23.94;40.64;94220.13;4891592;29;20120;-71
2021/05/14 05:12:17;;;;;;;3.58;1.25;;;;;;;25.40;36.94;94216.47;4891782;29;20048;-72
2021/05/14 05:14:43;;;;;;;1.42;1.13;;;;;;;24.19;36.82;94216.59;4876998;29;20511;-71
2021/05/14 05:17:09;;;;;;;2.95;1.00;;;;;;;23.69;38.52;94217.59;4891367;29;20088;-72
2021/05/14 05:19:35;;;;;;;2.22;1.20;;;;;;;24.02;38.74;94212.41;4892539;29;20024;-71
2021/05/14 05:22:00;;;;;;;3.95;1.33;;;;;;;24.64;37.98;94214.47;4891041;29;20127;-71
2021/05/14 05:24:26;;;;;;;1.80;1.20;;;;;;;24.79;39.12;94210.13;4893622;29;20111;-71
2021/05/14 05:26:52;;;;;;;4.03;1.25;;;;;;;24.12;39.54;94207.09;4891419;29;20080;-70
2021/05/14 05:29:17;;;;;;;3.90;1.05;;;;;;;25.21;38.63;94218.25;4907788;29;20088;-70
2021/05/14 05:31:43;;;;;;;1.63;1.10;;;;;;;26.07;36.49;94215.47;4892172;29;20028;-70
2021/05/14 05:34:09;;;;;;;2.13;1.35;;;;;;;26.98;36.02;94221.41;4906850;29;20440;-72
2021/05/14 05:36:34;;;;;;;2.33;1.35;;;;;;;27.31;34.62;94217.66;4893604;29;20463;-71
2021/05/14 05:38:59;;;;;;;4.10;1.20;;;;;;;26.26;36.25;94228.84;4891079;29;20029;-71
2021/05/14 05:41:25;;;;;;;1.58;1.13;;;;;;;28.47;33.25;94234.09;4893590;29;20417;-73
2021/05/14 05:43:51;;;;;;;1.98;1.23;;;;;;;28.95;33.32;94230.91;4875290;29;20414;-71
2021/05/14 05:46:16;;;;;;;2.05;1.10;;;;;;;26.87;34.84;94228.78;4893240;29;20028;-71
2021/05/14 05:48:45;;;;;;;2.97;1.27;;;;;;;27.50;34.51;94225.59;4876531;29;20035;-70
2021/05/14 05:51:11;;;;;;;2.35;1.30;;;;;;;28.73;32.43;94231.69;4876465;29;20028;-73
2021/05/14 05:53:37;;;;;;;1.85;1.33;;;;;;;27.97;34.73;94243.88;4876249;29;20085;-70
2021/05/14 05:56:03;;;;;;;1.75;1.10;;;;;;;28.43;33.26;94243.75;4898296;29;20115;-71
2021/05/14 05:58:31;;;;;;;2.72;1.38;;;;;;;26.15;37.39;94240.63;4868840;29;20107;-71
2021/05/14 06:00:56;;;;;;;1.90;1.25;;;;;;;25.32;39.91;94246.28;4893428;29;20033;-72
2021/05/14 06:03:21;;;;;;;4.68;1.63;;;;;;;25.86;39.70;94250.53;4913735;29;20119;-71
2021/05/14 06:05:47;;;;;;;2.03;1.65;;;;;;;24.54;40.47;94248.97;4881834;29;20044;-70
2021/05/14 06:08:12;;;;;;;1.60;1.50;;;;;;;25.51;40.01;94257.78;4882352;29;20111;-71
2021/05/14 06:10:38;;;;;;;2.55;1.40;;;;;;;25.62;38.24;94259.25;4867259;29;20072;-71
2021/05/14 06:13:03;;;;;;;2.92;1.60;;;;;;;25.49;39.08;94254.66;4866376;29;20094;-71
2021/05/14 06:15:29;;;;;;;4.53;2.08;;;;;;;23.78;40.30;94263.59;4897586;29;20172;-71
2021/05/14 06:17:54;;;;;;;4.47;1.42;;;;;;;28.30;34.69;94273.09;4881225;29;20442;-71
2021/05/14 06:20:22;;;;;;;3.00;1.60;;;;;;;27.39;36.62;94272.84;4897229;29;20032;-71
2021/05/14 06:22:48;;;;;;;3.50;1.58;;;;;;;28.04;35.60;94267.44;4895323;29;20035;-74
2021/05/14 06:25:13;;;;;;;1.63;1.40;;;;;;;26.90;35.15;94269.94;4879566;29;20024;-72
2021/05/14 06:27:39;;;;;;;3.50;1.60;;;;;;;25.31;38.99;94271.22;4877749;29;20063;-72
2021/05/14 06:30:05;;;;;;;2.00;1.52;;;;;;;21.63;47.47;94269.03;4865050;29;20054;-72
2021/05/14 06:32:30;;;;;;;4.10;2.08;;;;;;;19.48;54.46;94273.50;4896440;29;20035;-72
2021/05/14 06:34:56;;;;;;;3.85;1.73;;;;;;;19.00;54.32;94275.91;4880355;29;20776;-72
2021/05/14 06:37:22;;;;;;;3.83;1.60;;;;;;;21.17;47.74;94281.94;4914691;29;20506;-72
2021/05/14 06:39:48;;;;;;;2.85;1.10;;;;;;;21.32;45.80;94276.00;4897395;29;20025;-73
2021/05/14 06:42:13;;;;;;;2.30;1.40;;;;;;;22.34;43.41;94284.16;4882120;29;20483;-73
2021/05/14 06:44:39;;;;;;;2.85;1.17;;;;;;;27.46;34.00;94275.16;4896142;29;20028;-72
2021/05/14 06:47:04;;;;;;;1.63;1.52;;;;;;;24.44;37.89;94272.84;4896746;29;20032;-71
2021/05/14 06:49:30;;;;;;;2.70;1.52;;;;;;;18.92;51.30;94279.72;4914940;29;20032;-72
2021/05/14 06:51:56;;;;;;;2.85;1.40;;;;;;;19.91;50.94;94285.88;4881409;29;20035;-72
2021/05/14 06:54:21;;;;;;;3.72;1.35;;;;;;;25.63;37.42;94273.31;4881860;29;20477;-71
2021/05/14 06:56:47;;;;;;;2.05;1.20;;;;;;;19.63;49.47;94293.94;4880990;29;20039;-72
2021/05/14 06:59:12;;;;;;;3.60;1.10;;;;;;;25.93;38.25;94288.94;4897492;29;20547;-72
2021/05/14 07:01:38;;;;;;;1.90;1.17;;;;;;;22.87;42.24;94290.06;4880585;29;20531;-72
2021/05/14 07:04:03;;;;;;;2.65;1.00;;;;;;;22.47;43.25;94291.59;4882007;29;20036;-72
2021/05/14 07:06:29;;;;;;;1.85;0.80;;;;;;;20.36;44.44;94281.16;4896960;29;20032;-73
2021/05/14 07:08:55;;;;;;;1.60;0.82;;;;;;;19.20;45.92;94284.88;4914097;29;20485;-71
2021/05/14 07:11:20;;;;;;;2.45;0.90;;;;;;;18.02;49.22;94284.94;4914184;29;20482;-71
2021/05/14 07:13:45;;;;;;;2.45;1.08;;;;;;;18.24;48.95;94285.06;4896307;29;20028;-73
2021/05/14 07:16:11;;;;;;;1.23;0.90;;;;;;;18.06;51.65;94286.06;4914071;29;20326;-73
2021/05/14 07:18:36;;;;;;;1.48;0.88;;;;;;;17.73;53.33;94285.91;4896297;29;20032;-71
2021/05/14 07:21:02;;;;;;;2.25;1.27;;;;;;;18.80;53.06;94289.50;4881637;29;20067;-72
2021/05/14 07:23:27;;;;;;;3.55;1.25;;;;;;;19.24;51.82;94287.84;4880785;29;20043;-71
2021/05/14 07:25:53;;;;;;;3.58;1.00;;;;;;;18.34;52.64;94287.88;4896580;29;20036;-72
2021/05/14 07:28:18;;;;;;;3.60;1.42;;;;;;;17.19;55.15;94297.53;4896826;29;20028;-71
2021/05/14 07:30:44;;;;;;;2.63;1.17;;;;;;;17.26;55.87;94304.25;4880638;29;20024;-71
2021/05/14 07:33:10;;;;;;;2.92;1.05;;;;;;;17.06;57.37;94295.94;4897192;29;20044;-71
2021/05/14 07:35:35;;;;;;;3.38;1.42;;;;;;;16.86;59.56;94300.69;4895616;29;20032;-71
2021/05/14 07:38:01;;;;;;;2.38;1.40;;;;;;;16.62;60.19;94299.84;4881655;29;20549;-71
2021/05/14 07:40:26;;;;;;;3.95;1.13;;;;;;;16.25;59.18;94293.91;4879628;29;20035;-71
2021/05/14 07:42:52;;;;;;;2.53;1.30;;;;;;;16.49;58.92;94289.56;4881462;29;20024;-71
2021/05/14 07:45:17;;;;;;;3.83;1.20;;;;;;;16.64;57.52;94300.41;4896142;29;20028;-72
2021/05/14 07:47:43;;;;;;;2.40;1.35;;;;;;;16.49;60.15;94302.63;4896396;29;20383;-71
2021/05/14 07:50:09;;;;;;;5.53;1.65;;;;;;;16.50;59.97;94306.03;4896561;29;20043;-71
2021/05/14 07:52:34;;;;;;;3.42;1.30;;;;;;;16.64;61.52;94295.19;4895527;29;20034;-71
2021/05/14 07:55:00;;;;;;;3.13;1.55;;;;;;;16.96;60.75;94305.38;4896576;29;20083;-71
2021/05/14 07:57:26;;;;;;;5.07;1.38;;;;;;;16.97;57.53;94301.72;4912503;29;20024;-71
2021/05/14 07:59:51;;;;;;;4.70;1.20;;;;;;;17.15;60.68;94305.03;4881146;29;20149;-71
2021/05/14 08:02:16;;;;;;;3.17;1.15;;;;;;;17.71;59.70;94303.69;4895234;29;20433;-71
2021/05/14 08:04:42;;;;;;;2.58;1.60;;;;;;;18.04;58.13;94305.66;4896161;29;20032;-71
2021/05/14 08:07:08;;;;;;;1.88;1.17;;;;;;;17.85;55.83;94305.03;4880656;29;20039;-71
2021/05/14 08:09:33;;;;;;;4.38;1.13;;;;;;;17.88;54.41;94307.19;4879950;29;20024;-71
2021/05/14 08:12:00;;;;;;;1.35;1.00;;;;;;;18.62;53.59;94300.22;4896487;29;20039;-70
2021/05/14 08:14:26;;;;;;;6.47;1.23;;;;;;;20.31;49.68;94299.53;4894996;29;20126;-71
2021/05/14 08:16:51;;;;;;;3.08;1.00;;;;;;;21.37;46.66;94300.53;4896187;29;20476;-71
2021/05/14 08:19:16;;;;;;;2.45;1.42;;;;;;;20.33;47.85;94300.09;4879090;29;20047;-71
2021/05/14 08:21:45;;;;;;;4.20;1.20;;;;;;;21.63;47.37;94298.84;4879552;29;20043;-72
2021/05/14 08:24:12;;;;;;;2.22;0.95;;;;;;;21.98;44.14;94298.25;4879638;29;20076;-70
2021/05/14 08:26:38;;;;;;;2.20;0.88;;;;;;;21.78;43.68;94300.75;4878764;29;20028;-71
2021/05/14 08:29:04;;;;;;;3.20;0.80;;;;;;;22.77;43.63;94296.13;4880807;29;20405;-71
2021/05/14 08:31:33;;;;;;;2.97;0.77;;;;;;;22.29;43.93;94296.53;4879200;29;20034;-70
2021/05/14 08:33:59;;;;;;;1.63;1.00;;;;;;;22.41;43.31;94305.78;4896727;29;20406;-70
2021/05/14 08:36:24;;;;;;;1.63;0.70;;;;;;;22.40;44.11;94298.16;4911998;29;20272;-71
2021/05/14 08:38:49;;;;;;;3.83;0.73;;;;;;;22.23;45.92;94295.72;4895836;29;20029;-71
2021/05/14 08:41:15;;;;;;;2.58;1.15;;;;;;;21.52;45.21;94284.00;4879193;29;20036;-71
2021/05/14 08:43:42;;;;;;;2.75;1.20;;;;;;;20.84;46.62;94297.94;4894900;29;20040;-71
2021/05/14 08:46:09;;;;;;;1.75;0.80;;;;;;;21.54;45.68;94289.84;4891142;29;20051;-71
2021/05/14 08:48:36;;;;;;;1.73;0.90;;;;;;;21.15;45.04;94288.50;4878100;29;20028;-71
2021/05/14 08:51:08;;;;;;;2.22;0.75;;;;;;;20.09;46.36;94288.22;4895767;29;20032;-72
2021/05/14 08:53:33;;;;;;;3.72;1.00;;;;;;;20.65;44.33;94283.56;4894627;29;20059;-71
2021/05/14 08:55:59;;;;;;;3.25;0.90;;;;;;;19.91;46.31;94284.06;4880242;29;20032;-72
2021/05/14 08:58:25;;;;;;;1.80;0.80;;;;;;;21.08;45.33;94283.41;4879270;29;20052;-71
2021/05/14 09:00:51;;;;;;;2.63;0.88;;;;;;;18.89;46.89;94282.84;4879766;29;20752;-72
2021/05/14 09:03:17;;;;;;;2.55;0.85;;;;;;;19.60;47.15;94292.59;4878951;29;20052;-71
2021/05/14 09:05:43;;;;;;;3.25;0.85;;;;;;;19.83;46.85;94294.22;4877931;29;20553;-72
2021/05/14 09:08:08;;;;;;;1.63;0.80;;;;;;;19.10;46.80;94290.00;4863336;29;20585;-71
2021/05/14 09:10:34;;;;;;;2.88;0.80;;;;;;;19.35;47.03;94293.00;4877799;29;20032;-71
2021/05/14 09:12:59;;;;;;;1.70;0.80;;;;;;;19.97;48.73;94288.31;4911230;29;20036;-72
2021/05/14 09:15:35;;;;;;;2.63;0.93;;;;;;;21.02;46.88;94289.69;4878244;29;20036;-71
2021/05/14 09:18:17;;;;;;;2.15;0.93;;;;;;;19.84;46.25;94291.31;4894229;29;20535;-71
2021/05/14 09:21:01;;;;;;;2.15;0.70;;;;;;;20.33;47.58;94286.94;4894011;29;20047;-71
2021/05/14 09:23:34;;;;;;;2.67;0.90;;;;;;;19.11;46.93;94288.16;4862612;29;20544;-72
2021/05/14 09:26:06;;;;;;;1.73;1.02;;;;;;;19.37;49.65;94290.94;4893689;29;20067;-71
2021/05/14 09:28:44;;;;;;;4.00;0.98;;;;;;;19.43;48.54;94292.63;4878408;29;20040;-72
2021/05/14 09:31:20;;;;;;;11.43;2.05;;;;;;;19.50;47.07;94295.06;4910626;29;20024;-71
2021/05/14 09:34:01;;;;;;;2.90;0.80;;;;;;;19.85;45.89;94292.13;4880489;29;20520;-72
2021/05/14 09:36:31;;;;;;;1.95;0.60;;;;;;;20.19;44.76;94285.72;4867194;29;20020;-72
2021/05/14 09:39:03;;;;;;;0.90;0.38;;;;;;;19.54;44.81;94298.00;4897405;29;20105;-73
2021/05/14 09:41:38;;;;;;;2.35;0.40;;;;;;;19.77;41.78;94284.66;4913832;29;20074;-74
2021/05/14 09:44:10;;;;;;;0.22;0.20;;;;;;;20.02;41.73;94289.44;4881852;29;20036;-74
2021/05/14 09:46:43;;;;;;;0.57;0.30;;;;;;;19.86;40.85;94288.47;4914658;29;20024;-71
2021/05/14 09:49:16;;;;;;;1.33;0.40;;;;;;;20.09;42.23;94282.97;4881829;29;20069;-71
2021/05/14 09:51:51;;;;;;;1.20;0.40;;;;;;;19.97;42.46;94282.31;4866781;29;20032;-72
2021/05/14 09:54:23;;;;;;;2.47;0.60;;;;;;;20.07;42.50;94286.88;4897097;29;20553;-72
2021/05/14 09:57:15;;;;;;;1.60;0.40;;;;;;;20.29;41.46;94288.47;4913505;29;20032;-75
2021/05/14 09:59:40;;;;;;;2.58;0.70;;;;;;;20.38;40.66;94284.38;4914530;29;20036;-72
2021/05/14 10:02:07;;;;;;;1.48;0.40;;;;;;;20.33;41.59;94278.25;4895392;29;20063;-72
2021/05/14 10:04:36;;;;;;;1.92;0.90;;;;;;;20.59;43.38;94274.81;4880534;29;20035;-71
2021/05/14 10:07:01;;;;;;;4.80;2.70;;;;;;;20.76;41.74;94272.88;4880556;29;20031;-72
2021/05/14 10:09:26;;;;;;;3.03;0.43;;;;;;;20.58;41.71;94267.19;4895706;29;20032;-72
2021/05/14 10:11:52;;;;;;;0.77;0.32;;;;;;;20.63;40.30;94259.34;4880191;29;20032;-73
2021/05/14 10:14:18;;;;;;;1.00;0.40;;;;;;;21.18;38.65;94257.19;4895578;29;20498;-72
2021/05/14 10:16:43;;;;;;;1.20;0.35;;;;;;;21.35;40.66;94265.72;4880304;29;20040;-72
2021/05/14 10:19:08;;;;;;;2.42;0.50;;;;;;;20.55;40.24;94257.16;4895378;29;20032;-72
2021/05/14 10:21:34;;;;;;;1.00;0.30;;;;;;;20.99;41.12;94259.41;4864592;29;20502;-73
2021/05/14 10:24:00;;;;;;;2.13;0.40;;;;;;;21.45;39.41;94257.88;4895511;29;20062;-72
2021/05/14 10:26:36;;;;;;;1.27;0.40;;;;;;;21.23;37.47;94249.31;4879518;29;20024;-72
2021/05/14 10:29:13;;;;;;;1.38;0.40;;;;;;;20.79;41.51;94263.69;4880084;29;20028;-73
2021/05/14 10:31:45;;;;;;;1.83;0.30;;;;;;;21.30;41.09;94249.88;4880765;29;20032;-72
2021/05/14 10:34:14;;;;;;;0.88;0.30;;;;;;;21.52;39.79;94261.06;4864385;29;20417;-71
2021/05/14 10:36:42;;;;;;;0.65;0.35;;;;;;;21.53;41.07;94256.59;4863921;29;20552;-70
2021/05/14 10:39:08;;;;;;;3.15;0.40;;;;;;;21.54;38.10;94251.06;4895496;29;20039;-72
2021/05/14 10:41:38;;;;;;;1.35;0.40;;;;;;;21.25;38.71;94249.88;4895456;29;20039;-72
2021/05/14 10:44:05;;;;;;;1.20;0.30;;;;;;;21.03;38.34;94242.00;4879296;29;20461;-71
2021/05/14 10:46:31;;;;;;;2.22;0.40;;;;;;;20.75;40.35;94255.50;4879123;29;20059;-72
2021/05/14 10:49:02;;;;;;;0.40;0.20;;;;;;;20.25;40.83;94271.56;4893725;29;20406;-69
2021/05/14 10:51:46;;;;;;;4.35;0.40;;;;;;;20.51;38.24;94272.66;4911606;29;20402;-72
2021/05/14 10:54:40;;;;;;;2.90;0.30;;;;;;;20.58;38.65;94277.72;4890970;29;20040;-69
2021/05/14 10:57:09;;;;;;;1.38;0.30;;;;;;;19.92;40.35;94287.47;4904667;29;20837;-70
2021/05/14 10:59:38;;;;;;;1.60;0.40;;;;;;;20.22;38.66;94281.78;4880261;29;20032;-71
2021/05/14 11:02:29;;;;;;;3.53;0.30;;;;;;;20.48;41.00;94268.66;4894083;29;20056;-70
2021/05/14 11:05:00;;;;;;;2.50;0.68;;;;;;;20.22;41.97;94277.31;4894387;29;20163;-72
2021/05/14 11:07:29;;;;;;;2.03;0.50;;;;;;;19.94;42.46;94293.28;4879502;29;20059;-71
2021/05/14 11:10:13;;;;;;;2.05;0.40;;;;;;;19.48;43.42;94289.28;4911535;29;20035;-70
2021/05/14 11:12:42;;;;;;;1.70;0.30;;;;;;;19.19;44.07;94293.81;4912188;29;20036;-71
2021/05/14 11:15:14;;;;;;;1.10;0.60;;;;;;;18.69;47.01;94300.84;4893132;29;20040;-70
2021/05/14 11:17:39;;;;;;;2.17;0.40;;;;;;;18.69;45.70;94295.59;4908673;29;20036;-70
2021/05/14 11:20:09;;;;;;;1.15;0.30;;;;;;;18.37;47.19;94306.56;4892029;29;20084;-70
2021/05/14 11:22:34;;;;;;;;;;;;;;;17.94;49.08;94318.56;4875570;29;20116;-70
2021/05/14 11:25:00;;;;;;;0.82;0.30;;;;;;;17.77;50.22;94303.56;4890810;29;20993;-70
2021/05/14 11:27:33;;;;;;;1.25;0.50;;;;;;;16.91;54.34;94303.44;4905866;29;20025;-71
2021/05/14 11:30:06;;;;;;;2.08;0.30;;;;;;;16.79;56.67;94313.88;4872157;29;20032;-69
2021/05/14 11:32:41;;;;;;;0.88;0.40;;;;;;;16.73;55.91;94311.34;4860514;29;20036;-70
2021/05/14 11:35:10;;;;;;;0.60;0.30;;;;;;;16.57;58.88;94299.72;4886031;29;20594;-69
2021/05/14 11:38:08;;;;;;;5.03;0.70;;;;;;;16.41;58.48;94310.00;4907781;29;20028;-70
2021/05/14 11:40:39;;;;;;;4.30;0.82;;;;;;;15.72;58.94;94311.25;4863892;29;20071;-74
2021/05/14 11:43:06;;;;;;;2.17;1.00;;;;;;;15.68;60.60;94313.50;4868857;29;20407;-75
2021/05/14 11:45:37;;;;;;;4.13;0.90;;;;;;;15.79;61.36;94325.03;4873871;29;20032;-75
2021/05/14 11:48:12;;;;;;;6.72;1.60;;;;;;;15.96;60.95;94330.47;4887400;29;20028;-73
2021/05/14 11:50:53;;;;;;;35.40;1.83;;;;;;;15.89;58.88;94321.91;4877354;29;20458;-74
2021/05/14 11:53:19;;;;;;;11.32;0.80;;;;;;;16.56;56.37;94326.09;4893746;29;20063;-75
2021/05/14 11:55:45;;;;;;;1.33;0.60;;;;;;;16.78;56.09;94319.34;4893601;29;20032;-75
2021/05/14 11:58:11;;;;;;;1.08;0.47;;;;;;;16.86;56.52;94316.38;4862366;29;20494;-76
2021/05/14 12:00:38;;;;;;;2.75;0.77;;;;;;;16.59;55.97;94312.56;4878388;29;20035;-74
2021/05/14 12:03:04;;;;;;;2.58;0.43;;;;;;;16.78;55.64;94321.94;4890474;29;20056;-74
2021/05/14 12:05:30;;;;;;;2.25;0.50;;;;;;;17.11;55.47;94305.75;4890533;29;20529;-72
2021/05/14 12:08:19;;;;;;;1.33;0.40;;;;;;;17.45;55.04;94304.13;4890746;29;20039;-74
2021/05/14 12:11:01;;;;;;;3.42;0.63;;;;;;;18.84;51.74;94306.38;4891618;29;20131;-72
2021/05/14 12:13:34;;;;;;;0.55;0.30;;;;;;;19.09;47.68;94288.41;4906509;29;20039;-73
2021/05/14 12:16:13;;;;;;;1.33;0.40;;;;;;;18.68;46.65;94250.25;4890262;29;20029;-73
2021/05/14 12:18:44;;;;;;;0.80;0.30;;;;;;;18.95;46.15;94268.75;4890623;29;20040;-73
2021/05/14 12:21:11;;;;;;;0.77;0.57;;;;;;;19.65;48.22;94268.22;4890512;29;20119;-72
2021/05/14 12:23:37;;;;;;;0.82;0.40;;;;;;;18.89;46.14;94267.88;4889671;29;20036;-72
2021/05/14 12:26:05;;;;;;;3.20;0.68;;;;;;;19.46;46.08;94265.88;4890790;29;20447;-73
2021/05/14 12:28:45;;;;;;;0.52;0.30;;;;;;;19.86;46.55;94262.97;4889865;29;20036;-75
2021/05/14 12:31:10;;;;;;;4.57;0.45;;;;;;;19.66;42.80;94260.09;4890163;29;20080;-74
2021/05/14 12:33:46;;;;;;;3.30;0.50;;;;;;;19.85;44.55;94260.56;4891472;29;20032;-73
2021/05/14 12:36:12;;;;;;;1.98;0.30;;;;;;;20.06;43.04;94265.06;4905152;29;20062;-75
2021/05/14 12:38:49;;;;;;;1.48;0.50;;;;;;;19.95;44.05;94264.13;4892044;29;20506;-76
2021/05/14 12:41:31;;;;;;;1.45;0.43;;;;;;;19.70;42.01;94268.28;4889522;29;20039;-77
2021/05/14 12:44:18;;;;;;;1.13;0.30;;;;;;;20.54;44.05;94261.63;4890546;29;20131;-73
2021/05/14 12:47:12;;;;;;;0.75;0.40;;;;;;;20.87;42.28;94252.72;4905220;29;20024;-72
2021/05/14 12:50:00;;;;;;;1.98;0.82;;;;;;;20.10;40.54;94262.72;4904255;29;20529;-74
2021/05/14 12:52:33;;;;;;;1.58;0.40;;;;;;;20.13;43.16;94270.88;4884586;29;20032;-75
2021/05/14 12:55:05;;;;;;;2.47;0.40;;;;;;;20.01;43.68;94267.59;4883940;29;20097;-74
2021/05/14 12:57:38;;;;;;;2.38;0.40;;;;;;;20.23;42.66;94268.38;4886256;29;20040;-74
2021/05/14 13:00:05;;;;;;;0.90;0.30;;;;;;;20.70;43.43;94273.09;4885747;29;20566;-73
2021/05/14 13:02:32;;;;;;;1.50;0.30;;;;;;;20.75;41.84;94267.84;4885729;29;20053;-73
2021/05/14 13:05:06;;;;;;;0.98;0.40;;;;;;;20.92;41.78;94271.97;4871511;29;20045;-73
2021/05/14 13:07:32;;;;;;;0.40;0.30;;;;;;;21.14;42.55;94266.63;4872602;29;20536;-73
2021/05/14 13:09:57;;;;;;;2.85;0.30;;;;;;;20.95;41.86;94268.03;4875381;29;20121;-73
2021/05/14 13:12:23;;;;;;;0.60;0.43;;;;;;;20.95;41.85;94252.22;4874372;29;20112;-74
2021/05/14 13:14:48;;;;;;;0.50;0.30;;;;;;;21.27;41.67;94266.19;4889811;29;20112;-73
2021/05/14 13:17:14;;;;;;;1.38;0.40;;;;;;;21.14;42.21;94271.91;4876368;29;20514;-74
2021/05/14 13:19:39;;;;;;;1.77;0.45;;;;;;;21.00;43.63;94274.13;4874360;29;20044;-72
2021/05/14 13:22:05;;;;;;;0.82;0.38;;;;;;;20.27;42.51;94273.97;4889914;29;20037;-70
2021/05/14 13:24:31;;;;;;;0.65;0.30;;;;;;;20.50;43.13;94297.38;4889722;29;20041;-71
2021/05/14 13:26:57;;;;;;;1.45;0.30;;;;;;;20.59;41.93;94300.34;4876415;29;20031;-71
2021/05/14 13:29:23;;;;;;;1.20;0.38;;;;;;;20.77;44.15;94300.81;4889495;29;20032;-73
2021/05/14 13:31:48;;;;;;;1.58;0.43;;;;;;;21.25;41.42;94296.47;4889918;29;20029;-70
2021/05/14 13:34:14;;;;;;;1.05;0.30;;;;;;;21.44;42.02;94300.31;4890058;29;20041;-70
2021/05/14 13:36:39;;;;;;;1.88;0.47;;;;;;;21.90;42.77;94299.53;4873744;29;20037;-70
2021/05/14 13:39:05;;;;;;;3.08;0.50;;;;;;;21.23;42.81;94303.81;4874674;29;20037;-70
2021/05/14 13:41:32;;;;;;;3.60;0.30;;;;;;;20.86;44.79;94311.66;4873639;29;20066;-72
2021/05/14 13:43:58;;;;;;;1.17;0.30;;;;;;;20.39;44.17;94320.13;4895112;29;20487;-72
2021/05/14 13:46:23;;;;;;;0.90;0.30;;;;;;;19.75;45.24;94315.63;4892753;29;20056;-71
2021/05/14 13:48:49;;;;;;;1.05;0.40;;;;;;;19.88;44.71;94315.28;4894593;29;20459;-72
2021/05/14 13:51:14;;;;;;;2.10;0.32;;;;;;;19.53;44.57;94320.06;4894204;29;20033;-70
2021/05/14 13:53:40;;;;;;;2.10;0.38;;;;;;;19.34;44.37;94322.94;4893306;29;20036;-69
2021/05/14 13:56:05;;;;;;;1.15;0.30;;;;;;;19.45;44.60;94326.53;4888213;29;20025;-70
2021/05/14 13:58:31;;;;;;;1.55;0.38;;;;;;;19.16;44.32;94322.38;4893503;29;20032;-70
2021/05/14 14:00:56;;;;;;;1.35;0.30;;;;;;;19.18;43.40;94328.97;4876840;29;20084;-70
2021/05/14 14:03:22;;;;;;;1.15;0.50;;;;;;;19.14;43.19;94332.31;4870376;29;20538;-71
2021/05/14 14:05:48;;;;;;;2.03;0.30;;;;;;;19.29;43.69;94332.56;4893100;29;20036;-71
2021/05/14 14:08:14;;;;;;;0.40;0.38;;;;;;;19.25;44.25;94332.25;4891271;29;20111;-71
2021/05/14 14:10:41;;;;;;;0.30;0.15;;;;;;;19.24;45.69;94335.91;4891532;29;20120;-70
2021/05/14 14:13:10;;;;;;;0.80;0.32;;;;;;;19.47;44.42;94334.97;4891274;29;20426;-70
2021/05/14 14:15:39;;;;;;;0.73;0.30;;;;;;;19.59;42.90;94337.50;4890662;29;20033;-71
2021/05/14 14:18:05;;;;;;;0.77;0.40;;;;;;;19.80;43.41;94339.38;4891192;29;20044;-70
2021/05/14 14:20:31;;;;;;;2.00;0.25;;;;;;;19.42;43.24;94332.28;4891062;29;20445;-71
2021/05/14 14:22:56;;;;;;;0.57;0.20;;;;;;;19.53;42.13;94341.88;4892030;29;20035;-71
2021/05/14 14:25:21;;;;;;;0.20;0.20;;;;;;;19.39;42.67;94327.47;4891190;29;20063;-71
2021/05/14 14:27:47;;;;;;;0.60;0.20;;;;;;;19.40;43.61;94339.59;4891520;29;20043;-70
2021/05/14 14:30:13;;;;;;;2.65;0.30;;;;;;;19.37;41.84;94340.03;4890820;29;20453;-71
2021/05/14 14:32:39;;;;;;;0.30;0.28;;;;;;;19.37;41.83;94343.47;4890860;29;20041;-71
2021/05/14 14:35:05;;;;;;;0.82;0.30;;;;;;;19.45;40.63;94345.72;4891097;29;20028;-71
2021/05/14 14:37:31;;;;;;;1.38;0.30;;;;;;;19.26;40.54;94348.81;4875169;29;20032;-71
2021/05/14 14:39:56;;;;;;;6.15;0.30;;;;;;;19.27;41.44;94342.50;4891030;29;20475;-70
2021/05/14 14:42:22;;;;;;;0.80;0.20;;;;;;;19.03;41.09;94347.13;4890955;29;20033;-69
2021/05/14 14:44:47;;;;;;;3.00;0.30;;;;;;;19.24;41.60;94346.41;4890601;29;20040;-71
2021/05/14 14:47:13;;;;;;;0.63;0.40;;;;;;;19.19;41.77;94343.72;4890848;29;20092;-71
2021/05/14 14:49:38;;;;;;;0.90;0.20;;;;;;;19.28;40.89;94350.16;4891428;29;20025;-70
2021/05/14 14:52:04;;;;;;;1.08;0.30;;;;;;;19.09;41.04;94340.91;4891620;29;20040;-71
2021/05/14 14:54:29;;;;;;;3.70;0.30;;;;;;;19.09;41.50;94340.13;4892065;29;20073;-69
2021/05/14 14:56:55;;;;;;;2.13;0.35;;;;;;;18.75;40.74;94347.16;4891406;29;20132;-69
2021/05/14 14:59:21;;;;;;;0.85;0.20;;;;;;;18.78;41.67;94351.94;4891569;29;20048;-69
2021/05/14 15:01:46;;;;;;;2.22;0.77;;;;;;;18.63;41.38;94351.66;4872089;29;20048;-70
2021/05/14 15:04:11;;;;;;;4.20;3.75;;;;;;;18.55;41.86;94352.84;4890379;29;20047;-70
2021/05/14 15:06:38;;;;;;;1.38;1.05;;;;;;;18.40;42.33;94339.38;4875305;29;20033;-70
2021/05/14 15:09:04;;;;;;;2.25;0.70;;;;;;;18.42;42.32;94348.63;4889949;29;20040;-70
2021/05/14 15:11:30;;;;;;;1.23;0.80;;;;;;;18.59;43.74;94343.44;4890357;29;20459;-70
2021/05/14 15:13:55;;;;;;;1.10;0.60;;;;;;;18.55;42.50;94338.91;4890639;29;20041;-70
2021/05/14 15:16:21;;;;;;;0.45;0.20;;;;;;;18.54;42.11;94332.06;4890243;29;20033;-71
2021/05/14 15:18:46;;;;;;;0.57;0.20;;;;;;;18.94;42.02;94338.06;4906099;29;20028;-71
2021/05/14 15:21:12;;;;;;;2.47;0.30;;;;;;;19.40;41.67;94336.97;4874388;29;20450;-73
2021/05/14 15:23:37;;;;;;;1.10;0.28;;;;;;;19.59;41.38;94345.38;4890514;29;20052;-70
2021/05/14 15:26:03;;;;;;;2.15;0.30;;;;;;;19.76;41.10;94346.16;4891044;29;20403;-73
2021/05/14 15:28:30;;;;;;;1.73;0.20;;;;;;;19.74;42.60;94350.88;4891871;29;20032;-73
2021/05/14 15:30:56;;;;;;;0.73;0.20;;;;;;;19.85;42.43;94342.06;4888601;29;20036;-73
2021/05/14 15:33:21;;;;;;;0.32;0.20;;;;;;;19.43;42.02;94334.66;4889957;29;20096;-71
2021/05/14 15:35:47;;;;;;;0.40;0.20;;;;;;;19.52;41.09;94331.63;4889812;29;20117;-72
2021/05/14 15:38:12;;;;;;;0.55;0.30;;;;;;;19.38;41.71;94333.75;4890101;29;20933;-71
2021/05/14 15:40:38;;;;;;;0.68;0.40;;;;;;;19.29;41.32;94329.94;4905488;29;20459;-73
2021/05/14 15:43:04;;;;;;;1.60;0.35;;;;;;;19.27;42.59;94335.41;4889328;29;20407;-72
2021/05/14 15:45:31;;;;;;;1.15;0.50;;;;;;;19.32;43.06;94337.34;4906086;29;20107;-72
2021/05/14 15:47:57;;;;;;;0.95;0.30;;;;;;;19.27;42.21;94335.41;4890077;29;20112;-72
2021/05/14 15:50:22;;;;;;;8.02;0.60;;;;;;;18.90;42.04;94344.78;4905774;29;20592;-72
2021/05/14 15:52:49;;;;;;;0.75;0.30;;;;;;;18.65;43.92;94339.91;4890070;29;20052;-70
2021/05/14 15:55:15;;;;;;;1.85;0.10;;;;;;;18.63;42.06;94334.09;4889492;29;20056;-71
2021/05/14 15:57:40;;;;;;;0.90;0.20;;;;;;;18.61;43.04;94333.53;4890187;29;20127;-72
2021/05/14 16:00:06;;;;;;;0.60;0.30;;;;;;;18.55;42.78;94341.53;4904562;29;20025;-73
2021/05/14 16:02:32;;;;;;;2.22;0.40;;;;;;;18.34;42.84;94340.31;4888775;29;20053;-72
2021/05/14 16:04:57;;;;;;;1.00;0.28;;;;;;;18.28;43.93;94331.56;4888884;29;20040;-72
2021/05/14 16:07:23;;;;;;;1.00;0.60;;;;;;;18.41;44.10;94320.81;4873755;29;20088;-72
2021/05/14 16:09:48;;;;;;;1.13;0.80;;;;;;;18.59;41.21;94321.69;4888814;29;20032;-71
2021/05/14 16:12:14;;;;;;;3.60;0.65;;;;;;;18.60;42.85;94323.25;4886905;29;20024;-71
2021/05/14 16:14:39;;;;;;;2.03;0.93;;;;;;;18.46;43.30;94293.09;4886305;29;20037;-72
2021/05/14 16:17:14;;;;;;;3.08;0.80;;;;;;;18.53;44.10;94319.97;4901506;29;20495;-72
2021/05/14 16:19:50;;;;;;;3.72;3.22;;;;;;;18.37;44.07;94317.06;4888296;29;20048;-74
2021/05/14 16:22:20;;;;;;;4.43;2.80;;;;;;;18.19;45.29;94312.00;4873584;29;20032;-74
2021/05/14 16:24:46;;;;;;;1.73;1.10;;;;;;;18.00;46.63;94315.81;4886371;29;20031;-72
2021/05/14 16:27:11;;;;;;;2.53;0.77;;;;;;;17.92;47.25;94316.97;4888608;29;20040;-73
2021/05/14 16:29:41;;;;;;;3.13;0.50;;;;;;;17.87;47.65;94316.06;4857337;29;20127;-73
2021/05/14 16:32:07;;;;;;;1.35;0.38;;;;;;;17.87;47.71;94318.69;4870333;29;20463;-74
2021/05/14 16:34:33;;;;;;;3.20;0.57;;;;;;;17.87;46.66;94309.03;4872046;29;20040;-74
2021/05/14 16:36:59;;;;;;;3.30;2.60;;;;;;;17.98;46.58;94317.09;4868811;29;20029;-74
2021/05/14 16:39:25;;;;;;;1.10;0.60;;;;;;;18.08;44.72;94320.69;4888463;29;20513;-73